sensor_id;sensor_type;location;lat;lon;timestamp;pressure;altitude;pressure_sealevel;temperature;humidity
33265;BME280;31404;53.974;-1.086;2022-12-18T00:05:34;101973.63;;;0.65;99.37
33265;BME280;31404;53.974;-1.086;2022-12-18T00:10:34;101972.08;;;0.82;99.25
33265;BME280;31404;53.974;-1.086;2022-12-18T00:15:35;101971.33;;;0.71;100.00
33265;BME280;31404;53.974;-1.086;2022-12-18T00:20:36;101973.45;;;0.34;100.00
33265;BME280;31404;53.974;-1.086;2022-12-18T00:25:36;101971.24;;;-0.12;100.00
33265;BME280;31404;53.974;-1.086;2022-12-18T00:30:35;101970.51;;;0.43;100.00
33265;BME280;31404;53.974;-1.086;2022-12-18T00:35:35;101972.45;;;0.20;100.00
33265;BME280;31404;53.974;-1.086;2022-12-18T00:40:35;101960.62;;;0.58;100.00
33265;BME280;31404;53.974;-1.086;2022-12-18T00:45:35;101965.62;;;0.14;100.00
33265;BME280;31404;53.974;-1.086;2022-12-18T00:50:35;101970.29;;;0.42;100.00
33265;BME280;31404;53.974;-1.086;2022-12-18T00:55:36;101976.43;;;1.00;97.01
33265;BME280;31404;53.974;-1.086;2022-12-18T01:00:34;101979.29;;;-0.03;100.00
33265;BME280;31404;53.974;-1.086;2022-12-18T01:10:35;101975.65;;;-0.58;100.00
33265;BME280;31404;53.974;-1.086;2022-12-18T01:15:35;101974.13;;;-0.43;100.00
33265;BME280;31404;53.974;-1.086;2022-12-18T01:20:34;101982.70;;;-0.27;99.94
33265;BME280;31404;53.974;-1.086;2022-12-18T01:25:36;101977.17;;;-0.60;99.34
33265;BME280;31404;53.974;-1.086;2022-12-18T01:30:35;101960.18;;;-0.76;100.00
33265;BME280;31404;53.974;-1.086;2022-12-18T01:40:35;101955.36;;;-1.39;100.00
33265;BME280;31404;53.974;-1.086;2022-12-18T01:45:34;101948.85;;;1.13;93.74
33265;BME280;31404;53.974;-1.086;2022-12-18T01:50:37;101953.16;;;2.00;87.29
33265;BME280;31404;53.974;-1.086;2022-12-18T01:55:38;101950.68;;;0.99;89.54
33265;BME280;31404;53.974;-1.086;2022-12-18T02:00:35;101952.22;;;-0.66;96.93
33265;BME280;31404;53.974;-1.086;2022-12-18T02:10:40;101968.95;;;-1.14;100.00
33265;BME280;31404;53.974;-1.086;2022-12-18T02:20:37;101964.31;;;1.49;88.49
33265;BME280;31404;53.974;-1.086;2022-12-18T02:30:36;101978.45;;;1.25;88.74
33265;BME280;31404;53.974;-1.086;2022-12-18T02:35:35;101971.67;;;2.26;82.56
33265;BME280;31404;53.974;-1.086;2022-12-18T02:40:35;101973.79;;;0.51;89.88
33265;BME280;31404;53.974;-1.086;2022-12-18T02:45:35;101965.23;;;1.21;86.20
33265;BME280;31404;53.974;-1.086;2022-12-18T02:50:37;101960.40;;;1.68;84.06
33265;BME280;31404;53.974;-1.086;2022-12-18T03:05:37;101982.89;;;-0.90;95.66
33265;BME280;31404;53.974;-1.086;2022-12-18T03:10:38;101983.77;;;1.20;86.92
33265;BME280;31404;53.974;-1.086;2022-12-18T03:15:37;101992.64;;;1.18;85.57
33265;BME280;31404;53.974;-1.086;2022-12-18T03:20:35;101996.72;;;-0.74;93.12
33265;BME280;31404;53.974;-1.086;2022-12-18T03:35:39;101993.85;;;-2.53;100.00
33265;BME280;31404;53.974;-1.086;2022-12-18T03:45:37;101975.89;;;-1.52;100.00
33265;BME280;31404;53.974;-1.086;2022-12-18T03:50:41;101969.08;;;-0.37;94.91
33265;BME280;31404;53.974;-1.086;2022-12-18T03:55:35;101950.04;;;0.04;92.33
33265;BME280;31404;53.974;-1.086;2022-12-18T04:00:35;101935.10;;;0.68;87.51
33265;BME280;31404;53.974;-1.086;2022-12-18T04:05:36;101929.84;;;-0.00;89.84
33265;BME280;31404;53.974;-1.086;2022-12-18T04:10:35;101934.80;;;-2.25;99.52
33265;BME280;31404;53.974;-1.086;2022-12-18T04:15:35;101917.68;;;-1.66;98.27
33265;BME280;31404;53.974;-1.086;2022-12-18T04:20:34;101919.29;;;-2.50;100.00
33265;BME280;31404;53.974;-1.086;2022-12-18T04:25:34;101921.64;;;-3.38;100.00
33265;BME280;31404;53.974;-1.086;2022-12-18T04:30:34;101926.37;;;-3.59;100.00
33265;BME280;31404;53.974;-1.086;2022-12-18T04:35:34;101924.82;;;-3.50;100.00
33265;BME280;31404;53.974;-1.086;2022-12-18T04:40:35;101927.41;;;-3.81;100.00
33265;BME280;31404;53.974;-1.086;2022-12-18T04:45:34;101902.78;;;-2.89;100.00
33265;BME280;31404;53.974;-1.086;2022-12-18T04:50:35;101876.93;;;-1.13;100.00
33265;BME280;31404;53.974;-1.086;2022-12-18T04:55:35;101877.54;;;-0.75;99.83
33265;BME280;31404;53.974;-1.086;2022-12-18T05:00:35;101864.94;;;-0.08;94.30
33265;BME280;31404;53.974;-1.086;2022-12-18T05:05:35;101862.25;;;-0.96;98.20
33265;BME280;31404;53.974;-1.086;2022-12-18T05:10:35;101863.64;;;-0.59;96.72
33265;BME280;31404;53.974;-1.086;2022-12-18T05:15:37;101863.34;;;-1.36;100.00
33265;BME280;31404;53.974;-1.086;2022-12-18T05:20:35;101861.30;;;-2.54;100.00
33265;BME280;31404;53.974;-1.086;2022-12-18T05:25:35;101855.31;;;-2.92;100.00
33265;BME280;31404;53.974;-1.086;2022-12-18T05:30:34;101856.72;;;-3.06;100.00
33265;BME280;31404;53.974;-1.086;2022-12-18T05:35:34;101845.70;;;-1.61;100.00
33265;BME280;31404;53.974;-1.086;2022-12-18T05:40:34;101843.28;;;-2.24;100.00
33265;BME280;31404;53.974;-1.086;2022-12-18T05:45:37;101823.89;;;-2.33;100.00
33265;BME280;31404;53.974;-1.086;2022-12-18T05:50:35;101833.65;;;-2.58;100.00
33265;BME280;31404;53.974;-1.086;2022-12-18T05:55:37;101826.37;;;-3.26;100.00
33265;BME280;31404;53.974;-1.086;2022-12-18T06:00:37;101831.19;;;-3.58;100.00
33265;BME280;31404;53.974;-1.086;2022-12-18T06:05:36;101826.90;;;-4.17;100.00
33265;BME280;31404;53.974;-1.086;2022-12-18T06:10:35;101830.69;;;-3.69;100.00
33265;BME280;31404;53.974;-1.086;2022-12-18T06:15:36;101837.90;;;-4.07;100.00
33265;BME280;31404;53.974;-1.086;2022-12-18T06:20:35;101853.56;;;-4.42;100.00
33265;BME280;31404;53.974;-1.086;2022-12-18T06:25:38;101858.65;;;-3.72;100.00
33265;BME280;31404;53.974;-1.086;2022-12-18T06:30:35;101854.38;;;-3.26;100.00
33265;BME280;31404;53.974;-1.086;2022-12-18T06:35:35;101856.72;;;-2.97;100.00
33265;BME280;31404;53.974;-1.086;2022-12-18T06:40:35;101873.66;;;-2.98;100.00
33265;BME280;31404;53.974;-1.086;2022-12-18T06:45:35;101885.21;;;-4.39;100.00
33265;BME280;31404;53.974;-1.086;2022-12-18T06:50:34;101875.40;;;-3.70;100.00
33265;BME280;31404;53.974;-1.086;2022-12-18T06:55:35;101875.21;;;-3.88;100.00
33265;BME280;31404;53.974;-1.086;2022-12-18T07:00:35;101866.24;;;-4.08;100.00
33265;BME280;31404;53.974;-1.086;2022-12-18T07:15:35;101879.49;;;-3.43;100.00
33265;BME280;31404;53.974;-1.086;2022-12-18T07:20:35;101870.59;;;-3.55;100.00
33265;BME280;31404;53.974;-1.086;2022-12-18T07:25:35;101862.51;;;-2.15;100.00
33265;BME280;31404;53.974;-1.086;2022-12-18T07:30:37;101836.22;;;-1.70;100.00
33265;BME280;31404;53.974;-1.086;2022-12-18T07:35:37;101834.46;;;-3.60;100.00
33265;BME280;31404;53.974;-1.086;2022-12-18T07:40:34;101829.30;;;-4.09;100.00
33265;BME280;31404;53.974;-1.086;2022-12-18T07:45:34;101831.43;;;-3.48;100.00
33265;BME280;31404;53.974;-1.086;2022-12-18T07:50:35;101789.65;;;-3.31;100.00
33265;BME280;31404;53.974;-1.086;2022-12-18T07:55:35;101811.73;;;-3.75;100.00
33265;BME280;31404;53.974;-1.086;2022-12-18T08:00:35;101818.74;;;-4.02;100.00
33265;BME280;31404;53.974;-1.086;2022-12-18T08:05:34;101823.07;;;-3.99;100.00
33265;BME280;31404;53.974;-1.086;2022-12-18T08:10:34;101823.70;;;-3.72;100.00
33265;BME280;31404;53.974;-1.086;2022-12-18T08:15:34;101828.83;;;-3.56;100.00
33265;BME280;31404;53.974;-1.086;2022-12-18T08:20:35;101830.78;;;-3.37;100.00
33265;BME280;31404;53.974;-1.086;2022-12-18T08:25:35;101838.26;;;-3.85;100.00
33265;BME280;31404;53.974;-1.086;2022-12-18T08:30:35;101826.52;;;-3.83;100.00
33265;BME280;31404;53.974;-1.086;2022-12-18T08:35:35;101811.58;;;-1.75;100.00
33265;BME280;31404;53.974;-1.086;2022-12-18T08:40:34;101815.60;;;-3.23;100.00
33265;BME280;31404;53.974;-1.086;2022-12-18T08:45:34;101805.81;;;-2.18;100.00
33265;BME280;31404;53.974;-1.086;2022-12-18T08:50:34;101812.29;;;-1.66;100.00
33265;BME280;31404;53.974;-1.086;2022-12-18T08:55:35;101801.58;;;-2.47;100.00
33265;BME280;31404;53.974;-1.086;2022-12-18T09:00:35;101780.38;;;-2.21;100.00
33265;BME280;31404;53.974;-1.086;2022-12-18T09:05:35;101750.12;;;-1.04;100.00
33265;BME280;31404;53.974;-1.086;2022-12-18T09:15:34;101770.55;;;-1.33;100.00
33265;BME280;31404;53.974;-1.086;2022-12-18T09:20:34;101757.55;;;-1.40;100.00
33265;BME280;31404;53.974;-1.086;2022-12-18T09:25:36;101733.34;;;-2.34;100.00
33265;BME280;31404;53.974;-1.086;2022-12-18T09:30:37;101726.71;;;-3.18;100.00
33265;BME280;31404;53.974;-1.086;2022-12-18T09:35:36;101717.02;;;-3.52;100.00
33265;BME280;31404;53.974;-1.086;2022-12-18T09:40:36;101696.62;;;-2.87;100.00
33265;BME280;31404;53.974;-1.086;2022-12-18T09:55:37;101675.44;;;-2.34;100.00
33265;BME280;31404;53.974;-1.086;2022-12-18T10:00:35;101680.50;;;-1.22;100.00
33265;BME280;31404;53.974;-1.086;2022-12-18T10:05:41;101665.98;;;-0.17;100.00
33265;BME280;31404;53.974;-1.086;2022-12-18T10:10:39;101681.32;;;-1.52;100.00
33265;BME280;31404;53.974;-1.086;2022-12-18T10:15:39;101674.35;;;-1.66;100.00
33265;BME280;31404;53.974;-1.086;2022-12-18T10:35:35;101619.96;;;-1.71;100.00
33265;BME280;31404;53.974;-1.086;2022-12-18T10:45:34;101597.62;;;-2.68;100.00
33265;BME280;31404;53.974;-1.086;2022-12-18T10:50:36;101573.42;;;-0.96;100.00
33265;BME280;31404;53.974;-1.086;2022-12-18T10:55:37;101549.82;;;-1.81;100.00
33265;BME280;31404;53.974;-1.086;2022-12-18T11:00:36;101540.44;;;-2.94;100.00
33265;BME280;31404;53.974;-1.086;2022-12-18T11:05:35;101535.34;;;-2.50;100.00
33265;BME280;31404;53.974;-1.086;2022-12-18T11:10:37;101533.28;;;-1.83;100.00
33265;BME280;31404;53.974;-1.086;2022-12-18T11:15:34;101510.85;;;-1.85;100.00
33265;BME280;31404;53.974;-1.086;2022-12-18T11:20:36;101505.40;;;-1.88;100.00
33265;BME280;31404;53.974;-1.086;2022-12-18T11:25:36;101502.40;;;-1.65;100.00
33265;BME280;31404;53.974;-1.086;2022-12-18T11:30:36;101478.27;;;-1.78;100.00
33265;BME280;31404;53.974;-1.086;2022-12-18T11:35:39;101468.75;;;-2.37;100.00
33265;BME280;31404;53.974;-1.086;2022-12-18T11:40:36;101467.12;;;-1.75;100.00
33265;BME280;31404;53.974;-1.086;2022-12-18T11:45:37;101445.63;;;-1.53;100.00
33265;BME280;31404;53.974;-1.086;2022-12-18T11:55:39;101436.80;;;-2.12;100.00
33265;BME280;31404;53.974;-1.086;2022-12-18T12:00:39;101427.60;;;-2.74;100.00
33265;BME280;31404;53.974;-1.086;2022-12-18T12:25:39;101366.92;;;-1.67;100.00
33265;BME280;31404;53.974;-1.086;2022-12-18T12:40:37;101323.86;;;-0.66;98.06
33265;BME280;31404;53.974;-1.086;2022-12-18T12:45:37;101319.32;;;-0.62;97.71
33265;BME280;31404;53.974;-1.086;2022-12-18T12:50:35;101315.60;;;-2.33;100.00
33265;BME280;31404;53.974;-1.086;2022-12-18T12:55:35;101298.99;;;-3.51;100.00
33265;BME280;31404;53.974;-1.086;2022-12-18T13:10:36;101266.95;;;-0.49;96.63
33265;BME280;31404;53.974;-1.086;2022-12-18T13:15:39;101266.80;;;-0.87;97.66
33265;BME280;31404;53.974;-1.086;2022-12-18T13:20:36;101257.03;;;-1.46;99.72
33265;BME280;31404;53.974;-1.086;2022-12-18T13:25:36;101237.26;;;-1.31;100.00
33265;BME280;31404;53.974;-1.086;2022-12-18T13:45:39;101225.94;;;-1.45;100.00
33265;BME280;31404;53.974;-1.086;2022-12-18T13:50:35;101211.91;;;-0.54;97.71
33265;BME280;31404;53.974;-1.086;2022-12-18T13:55:34;101211.61;;;-1.59;100.00
33265;BME280;31404;53.974;-1.086;2022-12-18T14:00:35;101192.43;;;-1.07;100.00
33265;BME280;31404;53.974;-1.086;2022-12-18T14:05:37;101172.79;;;-0.26;97.20
33265;BME280;31404;53.974;-1.086;2022-12-18T14:10:35;101158.54;;;-0.82;100.00
33265;BME280;31404;53.974;-1.086;2022-12-18T14:15:39;101147.73;;;-2.17;100.00
33265;BME280;31404;53.974;-1.086;2022-12-18T14:20:35;101135.81;;;-0.26;100.00
33265;BME280;31404;53.974;-1.086;2022-12-18T14:25:36;101126.40;;;-0.29;100.00
33265;BME280;31404;53.974;-1.086;2022-12-18T14:30:37;101108.03;;;-1.13;100.00
33265;BME280;31404;53.974;-1.086;2022-12-18T14:35:29;101095.15;;;-0.95;100.00
33265;BME280;31404;53.974;-1.086;2022-12-18T14:40:35;101093.70;;;-0.98;100.00
33265;BME280;31404;53.974;-1.086;2022-12-18T14:45:36;101087.68;;;0.22;100.00
33265;BME280;31404;53.974;-1.086;2022-12-18T14:50:35;101080.01;;;0.71;97.65
33265;BME280;31404;53.974;-1.086;2022-12-18T14:55:35;101073.24;;;0.03;100.00
33265;BME280;31404;53.974;-1.086;2022-12-18T15:05:35;101063.38;;;-1.01;100.00
33265;BME280;31404;53.974;-1.086;2022-12-18T15:10:34;101060.55;;;-0.38;100.00
33265;BME280;31404;53.974;-1.086;2022-12-18T15:25:36;101016.97;;;-1.15;100.00
33265;BME280;31404;53.974;-1.086;2022-12-18T15:30:35;101015.47;;;-1.47;100.00
33265;BME280;31404;53.974;-1.086;2022-12-18T15:35:35;101000.83;;;-1.13;100.00
33265;BME280;31404;53.974;-1.086;2022-12-18T15:40:35;101006.29;;;-1.35;100.00
33265;BME280;31404;53.974;-1.086;2022-12-18T15:45:34;100996.31;;;-1.70;100.00
33265;BME280;31404;53.974;-1.086;2022-12-18T15:50:35;100987.02;;;-0.65;100.00
33265;BME280;31404;53.974;-1.086;2022-12-18T15:55:35;100963.64;;;-1.14;100.00
33265;BME280;31404;53.974;-1.086;2022-12-18T16:00:37;100960.43;;;-2.25;100.00
33265;BME280;31404;53.974;-1.086;2022-12-18T16:05:35;100944.98;;;-0.69;100.00
33265;BME280;31404;53.974;-1.086;2022-12-18T16:10:35;100934.44;;;-1.57;100.00
33265;BME280;31404;53.974;-1.086;2022-12-18T16:15:35;100926.85;;;-1.62;100.00
33265;BME280;31404;53.974;-1.086;2022-12-18T16:20:35;100917.84;;;-0.38;100.00
33265;BME280;31404;53.974;-1.086;2022-12-18T16:25:34;100921.16;;;-0.60;100.00
33265;BME280;31404;53.974;-1.086;2022-12-18T16:30:34;100914.55;;;-1.02;100.00
33265;BME280;31404;53.974;-1.086;2022-12-18T16:35:34;100905.75;;;-0.39;100.00
33265;BME280;31404;53.974;-1.086;2022-12-18T16:40:34;100903.01;;;-0.83;100.00
33265;BME280;31404;53.974;-1.086;2022-12-18T16:45:34;100888.95;;;-1.18;100.00
33265;BME280;31404;53.974;-1.086;2022-12-18T16:50:34;100882.09;;;-0.88;100.00
33265;BME280;31404;53.974;-1.086;2022-12-18T16:55:35;100865.59;;;-1.29;100.00
33265;BME280;31404;53.974;-1.086;2022-12-18T17:05:35;100848.52;;;-0.83;100.00
33265;BME280;31404;53.974;-1.086;2022-12-18T17:10:36;100836.15;;;0.50;100.00
33265;BME280;31404;53.974;-1.086;2022-12-18T17:15:36;100828.04;;;0.30;100.00
33265;BME280;31404;53.974;-1.086;2022-12-18T17:20:34;100814.10;;;-0.05;100.00
33265;BME280;31404;53.974;-1.086;2022-12-18T17:25:34;100800.13;;;-0.08;100.00
33265;BME280;31404;53.974;-1.086;2022-12-18T17:30:40;100797.56;;;-0.21;100.00
33265;BME280;31404;53.974;-1.086;2022-12-18T17:35:34;100775.22;;;-0.20;100.00
33265;BME280;31404;53.974;-1.086;2022-12-18T17:40:35;100763.19;;;0.33;100.00
33265;BME280;31404;53.974;-1.086;2022-12-18T17:45:35;100749.81;;;-1.24;100.00
33265;BME280;31404;53.974;-1.086;2022-12-18T17:50:35;100737.44;;;-0.21;100.00
33265;BME280;31404;53.974;-1.086;2022-12-18T17:55:34;100730.48;;;-1.03;100.00
33265;BME280;31404;53.974;-1.086;2022-12-18T18:00:38;100735.48;;;0.35;100.00
33265;BME280;31404;53.974;-1.086;2022-12-18T18:05:35;100741.54;;;0.05;100.00
33265;BME280;31404;53.974;-1.086;2022-12-18T18:10:35;100722.21;;;0.02;100.00
33265;BME280;31404;53.974;-1.086;2022-12-18T18:15:34;100713.01;;;-0.28;100.00
33265;BME280;31404;53.974;-1.086;2022-12-18T18:25:35;100692.46;;;-1.31;100.00
33265;BME280;31404;53.974;-1.086;2022-12-18T18:30:36;100687.38;;;-1.17;100.00
33265;BME280;31404;53.974;-1.086;2022-12-18T18:40:34;100674.61;;;0.15;100.00
33265;BME280;31404;53.974;-1.086;2022-12-18T18:45:34;100675.04;;;-0.08;100.00
33265;BME280;31404;53.974;-1.086;2022-12-18T18:50:35;100662.10;;;0.74;100.00
33265;BME280;31404;53.974;-1.086;2022-12-18T18:55:35;100654.15;;;0.23;100.00
33265;BME280;31404;53.974;-1.086;2022-12-18T19:00:35;100654.30;;;-0.08;100.00
33265;BME280;31404;53.974;-1.086;2022-12-18T19:05:35;100636.43;;;0.41;100.00
33265;BME280;31404;53.974;-1.086;2022-12-18T19:20:35;100609.77;;;-0.99;100.00
33265;BME280;31404;53.974;-1.086;2022-12-18T19:30:40;100579.16;;;0.96;100.00
33265;BME280;31404;53.974;-1.086;2022-12-18T19:45:36;100558.95;;;-0.14;100.00
33265;BME280;31404;53.974;-1.086;2022-12-18T19:50:40;100545.06;;;-0.29;100.00
33265;BME280;31404;53.974;-1.086;2022-12-18T20:00:35;100502.54;;;0.83;100.00
33265;BME280;31404;53.974;-1.086;2022-12-18T20:05:35;100498.12;;;0.20;100.00
33265;BME280;31404;53.974;-1.086;2022-12-18T20:10:35;100489.30;;;0.31;100.00
33265;BME280;31404;53.974;-1.086;2022-12-18T20:15:35;100485.34;;;0.03;100.00
33265;BME280;31404;53.974;-1.086;2022-12-18T20:20:35;100483.71;;;-0.13;100.00
33265;BME280;31404;53.974;-1.086;2022-12-18T20:25:36;100479.23;;;1.06;100.00
33265;BME280;31404;53.974;-1.086;2022-12-18T20:30:35;100484.07;;;0.92;100.00
33265;BME280;31404;53.974;-1.086;2022-12-18T20:35:35;100477.07;;;0.26;100.00
33265;BME280;31404;53.974;-1.086;2022-12-18T20:40:35;100480.91;;;0.76;100.00
33265;BME280;31404;53.974;-1.086;2022-12-18T20:45:34;100470.84;;;1.14;100.00
33265;BME280;31404;53.974;-1.086;2022-12-18T20:50:35;100471.41;;;1.88;100.00
33265;BME280;31404;53.974;-1.086;2022-12-18T21:00:35;100446.66;;;2.40;100.00
33265;BME280;31404;53.974;-1.086;2022-12-18T21:05:35;100438.19;;;2.61;100.00
33265;BME280;31404;53.974;-1.086;2022-12-18T21:10:35;100427.51;;;1.51;100.00
33265;BME280;31404;53.974;-1.086;2022-12-18T21:15:35;100416.48;;;2.12;100.00
33265;BME280;31404;53.974;-1.086;2022-12-18T21:20:35;100418.15;;;2.48;100.00
33265;BME280;31404;53.974;-1.086;2022-12-18T21:25:36;100408.37;;;2.38;100.00
33265;BME280;31404;53.974;-1.086;2022-12-18T21:30:35;100416.75;;;2.62;100.00
33265;BME280;31404;53.974;-1.086;2022-12-18T21:35:34;100408.82;;;2.19;100.00
33265;BME280;31404;53.974;-1.086;2022-12-18T21:40:35;100395.18;;;2.11;100.00
33265;BME280;31404;53.974;-1.086;2022-12-18T21:45:39;100376.24;;;2.14;100.00
33265;BME280;31404;53.974;-1.086;2022-12-18T21:50:34;100363.34;;;2.02;100.00
33265;BME280;31404;53.974;-1.086;2022-12-18T21:55:34;100359.63;;;3.20;100.00
33265;BME280;31404;53.974;-1.086;2022-12-18T22:00:34;100381.21;;;2.11;100.00
33265;BME280;31404;53.974;-1.086;2022-12-18T22:10:35;100353.84;;;3.06;100.00
33265;BME280;31404;53.974;-1.086;2022-12-18T22:15:35;100332.85;;;3.22;100.00
33265;BME280;31404;53.974;-1.086;2022-12-18T22:20:34;100317.93;;;2.74;100.00
33265;BME280;31404;53.974;-1.086;2022-12-18T22:25:34;100310.34;;;2.93;100.00
33265;BME280;31404;53.974;-1.086;2022-12-18T22:30:34;100307.41;;;3.13;100.00
33265;BME280;31404;53.974;-1.086;2022-12-18T22:35:35;100294.59;;;3.28;100.00
33265;BME280;31404;53.974;-1.086;2022-12-18T22:40:35;100301.45;;;1.68;100.00
33265;BME280;31404;53.974;-1.086;2022-12-18T22:45:35;100305.28;;;1.47;100.00
33265;BME280;31404;53.974;-1.086;2022-12-18T22:50:35;100306.35;;;2.78;100.00
33265;BME280;31404;53.974;-1.086;2022-12-18T22:55:35;100293.17;;;3.17;100.00
33265;BME280;31404;53.974;-1.086;2022-12-18T23:00:35;100276.66;;;3.77;100.00
33265;BME280;31404;53.974;-1.086;2022-12-18T23:05:34;100275.35;;;2.80;100.00
33265;BME280;31404;53.974;-1.086;2022-12-18T23:10:36;100277.22;;;3.68;100.00
33265;BME280;31404;53.974;-1.086;2022-12-18T23:20:34;100263.73;;;2.74;100.00
33265;BME280;31404;53.974;-1.086;2022-12-18T23:25:35;100245.91;;;3.29;100.00
33265;BME280;31404;53.974;-1.086;2022-12-18T23:30:35;100219.79;;;3.05;100.00
33265;BME280;31404;53.974;-1.086;2022-12-18T23:35:35;100216.94;;;2.55;100.00
33265;BME280;31404;53.974;-1.086;2022-12-18T23:40:35;100187.53;;;4.12;100.00
33265;BME280;31404;53.974;-1.086;2022-12-18T23:45:36;100184.41;;;4.43;100.00
33265;BME280;31404;53.974;-1.086;2022-12-18T23:50:35;100171.62;;;3.67;100.00
33265;BME280;31404;53.974;-1.086;2022-12-18T23:55:38;100174.80;;;3.58;100.00
